Natathlon Départemental 12-13 ans

Départementale

DÉCINES-CHARPIEU

Du Samedi 31 Janvier 2015 au Dimanche 01 Fevrier 2015

Bassin de 25m

100 Papillon Dames

Séries

Nom Année Club Pays Temps Points Niv.
1 ZOCCARATO Laura 2002 ND VILLEFRANCHE-EN-BEAUJOLAIS FRA 1:14:12 938
2 DOGAN Mélodie 2002 EMS BRON FRA 1:18:31 832
3 MURAT Dana 2002 LYON NATATION FRA 1:19:06 814
4 DA SILVA Léa 2002 EMS BRON FRA 1:20:06 790
5 BROUEL Bérénice 2002 EMS BRON FRA 1:21:98 744
6 COSTE Manon 2002 AQUATIC CLUB FIDESIEN FRA 1:22:11 741
7 VIGUIER Margot 2002 ND VILLEFRANCHE-EN-BEAUJOLAIS FRA 1:24:28 692
8 BENTZ Mandoline 2003 TRITON CLUB BELLEVILLE FRA 1:24:70 682
9 COMTE Cristina 2003 LYON NATATION FRA 1:26:14 651
10 DANGUIRAL Cynthia 2003 CN TARARE FRA 1:27:87 614
11 PESTRE Soa 2003 TRITON CLUB BELLEVILLE FRA 1:27:94 612
12 BENALI Lina 2002 TRITON CLUB BELLEVILLE FRA 1:28:05 610
13 REYNES Celia 2002 TRITON CLUB BELLEVILLE FRA 1:29:06 589
14 WISS Ambre 2002 AQUATIC CLUB FIDESIEN FRA 1:29:30 584
15 CONFAVREUX Léane 2003 TRITON CLUB BELLEVILLE FRA 1:29:42 581
16 ROQUET Heloïse 2002 RILLIEUX NATATION FRA 1:29:60 578
17 PEYRE Alix 2002 LYON NATATION FRA 1:29:62 577
18 GIRON Hannah 2002 LYON NATATION FRA 1:29:85 573
19 DELORD Penelope 2002 LYON NATATION FRA 1:30:38 562
20 DUCHENES Marion 2003 EMS BRON FRA 1:30:45 560
21 HOMAWOO Maëlle 2002 LYON NATATION FRA 1:31:03 549
22 PIVET Clara 2003 TRITON CLUB BELLEVILLE FRA 1:32:33 523
23 MONTANGERAND Inès 2002 LYON NATATION FRA 1:33:27 505
24 DADOMO Clara 2002 EMS BRON FRA 1:34:16 488
25 MAES Joséphine 2003 LYON NATATION FRA 1:35:15 470
26 HUYNH Gena 2002 ND VILLEFRANCHE-EN-BEAUJOLAIS FRA 1:35:23 468
27 PONZETTO Nina 2003 AS CALUIRE FRA 1:35:33 466
28 CHERET Juliette 2003 LYON NATATION FRA 1:35:63 461
29 SZYBOWSKI Alexandra 2003 EMS BRON FRA 1:35:67 460
30 PENARD Anais 2002 RILLIEUX NATATION FRA 1:35:78 458
31 MONSIAUD Elisa 2003 LYON NATATION FRA 1:35:89 456
32 FARGIER Jeanne 2002 LYON NATATION FRA 1:36:04 453
33 SAUMIER Capucine 2002 LYON NATATION FRA 1:36:80 440
34 CAGNON Tennessee 2002 TRITON CLUB BELLEVILLE FRA 1:37:58 426
35 LIMORTE Mathilde 2002 LYON NATATION FRA 1:37:69 424
36 CHALOT Chloé 2002 EMS BRON FRA 1:39:13 399
37 AOUAR Narjisse 2003 EMS BRON FRA 1:39:70 389
38 FERRI Elsa 2003 CHASSIEU NATATION FRA 1:39:71 389
39 STRACQUALURSI Eva 2002 ND VILLEFRANCHE-EN-BEAUJOLAIS FRA 1:39:87 386
40 BAUMSTARK Lilou 2003 CHASSIEU NATATION FRA 1:40:03 384
41 CHOTARD Jade 2003 AC DÉCINES FRA 1:40:78 371
42 SABBANI Chaymae 2003 AQUATIC CLUB FIDESIEN FRA 1:41:18 365
43 SAURAT Ines 2002 SAL ST-PRIEST NATATION FRA 1:41:32 363
44 VERMANDE Morgane 2003 LYON NATATION FRA 1:41:38 362
45 PHILIPPON Elizabeth 2003 EMS BRON FRA 1:42:25 348
46 DA COSTA Aaliyah 2003 CMO VÉNISSIEUX FRA 1:42:34 346
47 COLLEE-HERNANDEZ Lucie 2002 SAL ST-PRIEST NATATION FRA 1:42:35 346
48 TURC Ségolène 2002 EMS BRON FRA 1:42:39 345
49 ZUCCALLI Anna 2002 LYON NATATION FRA 1:42:70 341
50 BOISSY Manon 2002 AC DÉCINES FRA 1:42:70 341
51 MAR Clarisse 2003 EMS BRON FRA 1:43:29 331
52 RACADOT Margot 2002 LYON NATATION FRA 1:44:35 315
53 BERLET Floriane 2003 EMS BRON FRA 1:44:86 307
54 DEVAY Laura 2002 CN TARARE FRA 1:45:77 294
55 VAUDAN Lea 2003 AQUATIC CLUB FIDESIEN FRA 1:46:62 282
56 JUPIN Laura 2002 ND VILLEFRANCHE-EN-BEAUJOLAIS FRA 1:46:75 280
57 BEN TAHAR Maelle 2002 AQUATIC CLUB FIDESIEN FRA 1:47:57 268
58 MARQUIER-GOTTELAND Ombline 2002 LYON NATATION FRA 1:47:77 265
59 DANGUIRAL Estelle 2003 CN TARARE FRA 1:48:29 258
60 LEPINASSE Agathe 2003 LYON NATATION FRA 1:48:64 254
61 MERCIER Jade 2002 TRITON CLUB BELLEVILLE FRA 1:49:05 248
62 TEIXEIRA Marine 2003 CHASSIEU NATATION FRA 1:49:08 248
63 MELEO Marine 2002 AQUATIC CLUB FIDESIEN FRA 1:49:30 245
64 PELLARIN Alice 2003 RILLIEUX NATATION FRA 1:50:07 234
65 BERARD Louise 2003 SAL ST-PRIEST NATATION FRA 1:50:63 227
66 BOUGHANMI Sofia 2002 SAL ST-PRIEST NATATION FRA 1:50:97 223
67 GUITTET Emma 2003 AQUATIC CLUB FIDESIEN FRA 1:51:02 222
68 DERIGNY Emilie 2003 CN TARARE FRA 1:53:49 192
69 NASRI Tahnia 2003 LYON NATATION FRA 1:53:90 187
70 MATHIEU Camille 2003 LYON NATATION FRA 1:54:51 180
71 SOURON Camille 2003 AQUATIC CLUB FIDESIEN FRA 1:55:14 173
72 TUGAUT Eve 2003 AS CALUIRE FRA 1:55:43 170
73 NGUYEN Léa 2003 EMS BRON FRA 1:55:96 164
74 DAGUIN Elisa 2003 LYON NATATION FRA 1:56:41 159
75 DEBBAH Maïssane 2002 AQUATIC CLUB FIDESIEN FRA 1:56:61 157
76 GUELLIL Lilia 2003 SAL ST-PRIEST NATATION FRA 1:57:51 147
77 MARQUIER-GOTTELAND Apolline 2003 LYON NATATION FRA 1:57:92 143
78 WERBROUCK Alice 2003 TRITON CLUB BELLEVILLE FRA 1:59:12 131
79 KALULU Claudette 2002 SAL ST-PRIEST NATATION FRA 1:59:61 127
80 FEVRIER Marie-Fleur 2003 EMS BRON FRA 2:01:06 113
81 BOUZERZOUR Zahra 2003 EMS BRON FRA 2:03:16 95
82 YVON-MILLASSEAU Gwendoline 2002 CN TARARE FRA - Disq.
83 LEMAITRE Lison 2002 ND VILLEFRANCHE-EN-BEAUJOLAIS FRA - Disq.
84 MAES Gaelle 2003 CN TARARE FRA - Disq.
85 PHARABET Anouck 2002 CN TARARE FRA - Disq.
86 LAGOUCHE Emeline 2003 AS CALUIRE FRA - Disq.
87 BEN AMARA Myriam 2003 RILLIEUX NATATION FRA - Disq.
88 VERHULST Isaline 2003 EMS BRON FRA - Disq.
89 PINTO DE SILVA Marie 2003 AS CALUIRE FRA - Disq.
90 BONNEAU Jeanne 2002 AS CALUIRE FRA - Disq.
91 LEMAN Charlotte 2003 AC DÉCINES FRA - Disq.
92 DUMAS Lola 2003 CN TARARE FRA - Disq.